Terminal Aerodrome Forecast
Issued by NWS Sterling, VA

Home | Current Version | Previous Version | Text Only | Print | Product List | Glossary On
Versions: 1 2 3 4 5 6 7 8 9 10 11 12 13 14 15 16 17 18 19 20 21 22
000
FTUS41 KLWX 042121 AAA
TAFIAD
TAF AMD
KIAD 042121Z 0421/0524 19012KT P6SM FEW060
     FM050100 19008KT P6SM FEW090
     FM050500 19004KT P6SM SCT050
     FM051200 VRB03KT P6SM SCT250
     FM051900 25005KT 6SM -SHRA SCT040 BKN090=

USA.gov is the U.S. government's official web portal to all federal, state and local government web resources and services.